Time;durP1;ratioP1;P1;durP2;ratioP2;P2;SDS_P1;SDS_P2;PMS_P1;PMS_P2;Temp;Humidity;BMP_temperature;BMP_pressure;BME280_temperature;BME280_humidity;BME280_pressure;Samples;Min_cycle;Max_cycle;Signal;HPM_P1;HPM_P2
2024/03/29 00:00:34;;;;;;;;;;;14.70;77.10;;;;;;5044210;27;87078;-48
2024/03/29 00:03:00;;;;;;;;;;;14.70;77.10;;;;;;5044044;27;88271;-46
2024/03/29 00:05:25;;;;;;;;;;;14.70;77.10;;;;;;5043934;28;87691;-49
2024/03/29 00:07:51;;;;;;;;;;;14.70;77.10;;;;;;5043990;28;86986;-49
2024/03/29 00:10:16;;;;;;;;;;;14.70;77.10;;;;;;5041446;27;88060;-50
2024/03/29 00:12:42;;;;;;;;;;;14.70;77.10;;;;;;5043536;28;87811;-49
2024/03/29 00:15:08;;;;;;;;;;;14.60;77.10;;;;;;5043933;28;87618;-49
2024/03/29 00:17:33;;;;;;;;;;;14.60;76.90;;;;;;5043258;28;89301;-49
2024/03/29 00:19:59;;;;;;;;;;;14.60;76.90;;;;;;5041894;28;87689;-48
2024/03/29 00:22:24;;;;;;;;;;;14.70;77.00;;;;;;5043750;28;87794;-49
2024/03/29 00:24:50;;;;;;;;;;;14.60;76.90;;;;;;5044800;27;88664;-48
2024/03/29 00:27:15;;;;;;;;;;;14.60;76.90;;;;;;5044159;27;88128;-49
2024/03/29 00:29:42;;;;;;;;;;;14.60;76.90;;;;;;5043065;27;89157;-48
2024/03/29 00:32:08;;;;;;;;;;;14.60;76.90;;;;;;5040809;27;87475;-49
2024/03/29 00:34:33;;;;;;;;;;;14.60;76.90;;;;;;5040492;28;86212;-51
2024/03/29 00:36:59;;;;;;;;;;;14.60;77.00;;;;;;5039945;28;87456;-49
2024/03/29 00:39:24;;;;;;;;;;;14.60;76.80;;;;;;5037908;28;86994;-51
2024/03/29 00:41:50;;;;;;;;;;;14.60;76.90;;;;;;5043498;28;88140;-49
2024/03/29 00:44:15;;;;;;;;;;;14.60;77.00;;;;;;5042953;28;87668;-50
2024/03/29 00:46:41;;;;;;;;;;;14.50;77.40;;;;;;5044992;27;87494;-49
2024/03/29 00:49:07;;;;;;;;;;;14.50;76.90;;;;;;5039385;27;88681;-51
2024/03/29 00:51:32;;;;;;;;;;;14.50;76.80;;;;;;5043485;28;87084;-50
2024/03/29 00:53:58;;;;;;;;;;;14.50;76.80;;;;;;5043314;27;88538;-48
2024/03/29 00:56:23;;;;;;;;;;;14.60;76.90;;;;;;5042937;28;87681;-52
2024/03/29 00:58:49;;;;;;;;;;;14.50;76.90;;;;;;5044425;28;86272;-48
2024/03/29 01:01:14;;;;;;;;;;;14.50;76.80;;;;;;5044114;28;87051;-52
2024/03/29 01:03:40;;;;;;;;;;;14.50;76.80;;;;;;5043686;28;87521;-48
2024/03/29 01:06:05;;;;;;;;;;;14.50;76.80;;;;;;5045650;28;87953;-51
2024/03/29 01:08:31;;;;;;;;;;;14.40;76.70;;;;;;5049748;27;87790;-49
2024/03/29 01:10:56;;;;;;;;;;;14.40;76.80;;;;;;5046148;28;87020;-49
2024/03/29 01:13:22;;;;;;;;;;;14.40;76.70;;;;;;5043765;28;87118;-49
2024/03/29 01:15:47;;;;;;;;;;;14.40;76.70;;;;;;5046377;28;88104;-48
2024/03/29 01:18:13;;;;;;;;;;;14.40;76.80;;;;;;5046747;28;87282;-48
2024/03/29 01:20:38;;;;;;;;;;;14.40;76.70;;;;;;5047736;28;87661;-49
2024/03/29 01:23:04;;;;;;;;;;;14.40;76.60;;;;;;5047674;28;86766;-48
2024/03/29 01:25:29;;;;;;;;;;;14.30;76.60;;;;;;5045013;28;87755;-48
2024/03/29 01:27:55;;;;;;;;;;;14.30;76.70;;;;;;5045796;28;87231;-48
2024/03/29 01:30:21;;;;;;;;;;;14.30;76.50;;;;;;5047586;28;88620;-48
2024/03/29 01:32:47;;;;;;;;;;;14.30;76.50;;;;;;5045163;27;88839;-48
2024/03/29 01:35:12;;;;;;;;;;;14.30;76.60;;;;;;5042630;27;87683;-49
2024/03/29 01:37:39;;;;;;;;;;;14.30;76.70;;;;;;5045145;27;87207;-49
2024/03/29 01:40:04;;;;;;;;;;;14.20;76.70;;;;;;5045977;28;87006;-49
2024/03/29 01:42:30;;;;;;;;;;;14.20;76.70;;;;;;5044898;27;87351;-50
2024/03/29 01:44:55;;;;;;;;;;;14.20;76.70;;;;;;5047165;27;86890;-49
2024/03/29 01:47:21;;;;;;;;;;;14.30;76.60;;;;;;5046341;27;87793;-48
2024/03/29 01:49:47;;;;;;;;;;;14.20;76.60;;;;;;5046767;27;87743;-47
2024/03/29 01:52:14;;;;;;;;;;;14.20;76.50;;;;;;5044216;27;87043;-49
2024/03/29 01:54:40;;;;;;;;;;;14.20;76.60;;;;;;5040880;27;89706;-48
2024/03/29 01:57:06;;;;;;;;;;;14.20;76.60;;;;;;5046172;28;87255;-48
2024/03/29 01:59:32;;;;;;;;;;;14.20;76.50;;;;;;5043368;27;87034;-48
2024/03/29 02:01:58;;;;;;;;;;;14.10;76.50;;;;;;5042582;27;88255;-50
2024/03/29 02:04:24;;;;;;;;;;;14.10;76.40;;;;;;5045550;28;87054;-48
2024/03/29 02:06:50;;;;;;;;;;;14.10;76.40;;;;;;5046301;27;87122;-49
2024/03/29 02:09:15;;;;;;;;;;;14.10;76.50;;;;;;5042425;28;88597;-49
2024/03/29 02:11:41;;;;;;;;;;;14.10;76.60;;;;;;5049347;28;86844;-48
2024/03/29 02:14:06;;;;;;;;;;;14.10;76.50;;;;;;5043851;28;87485;-49
2024/03/29 02:16:32;;;;;;;;;;;14.10;76.50;;;;;;5046511;27;86846;-48
2024/03/29 02:18:58;;;;;;;;;;;14.10;76.60;;;;;;5045274;27;88191;-48
2024/03/29 02:21:23;;;;;;;;;;;14.00;76.60;;;;;;5045478;27;88456;-49
2024/03/29 02:23:55;;;;;;;;;;;14.00;76.50;;;;;;5045049;27;87362;-48
2024/03/29 02:26:21;;;;;;;;;;;14.00;76.40;;;;;;5041279;27;87953;-49
2024/03/29 02:28:47;;;;;;;;;;;14.00;76.50;;;;;;5043352;27;88635;-48
2024/03/29 02:31:12;;;;;;;;;;;14.00;76.50;;;;;;5044530;28;87312;-48
2024/03/29 02:33:38;;;;;;;;;;;14.00;76.50;;;;;;5048865;27;87726;-49
2024/03/29 02:36:03;;;;;;;;;;;13.90;76.40;;;;;;5045344;27;86336;-48
2024/03/29 02:38:29;;;;;;;;;;;14.00;76.50;;;;;;5043835;27;87185;-49
2024/03/29 02:40:55;;;;;;;;;;;14.00;76.50;;;;;;5044167;27;87749;-48
2024/03/29 02:43:20;;;;;;;;;;;14.00;76.40;;;;;;5045057;28;87924;-48
2024/03/29 02:45:46;;;;;;;;;;;14.00;76.40;;;;;;5041225;28;88006;-49
2024/03/29 02:48:11;;;;;;;;;;;13.90;76.40;;;;;;5045250;28;87516;-48
2024/03/29 02:50:37;;;;;;;;;;;13.90;76.50;;;;;;5045445;28;87015;-49
2024/03/29 02:53:03;;;;;;;;;;;13.90;76.60;;;;;;5045193;28;86947;-47
2024/03/29 02:55:28;;;;;;;;;;;13.90;76.50;;;;;;5048853;27;87383;-49
2024/03/29 02:57:54;;;;;;;;;;;13.90;76.50;;;;;;5045305;28;88072;-48
2024/03/29 03:00:19;;;;;;;;;;;13.80;76.40;;;;;;5044037;28;86670;-49
2024/03/29 03:02:45;;;;;;;;;;;13.80;76.40;;;;;;5043083;27;87965;-49
2024/03/29 03:05:10;;;;;;;;;;;13.80;76.40;;;;;;5045905;28;86935;-48
2024/03/29 03:13:05;;;;;;;;;;;13.80;76.40;;;;;;5041470;28;87261;-48
2024/03/29 03:15:30;;;;;;;;;;;13.80;76.40;;;;;;5042099;27;87706;-48
2024/03/29 03:17:56;;;;;;;;;;;13.80;76.50;;;;;;5048764;28;86947;-48
2024/03/29 03:20:22;;;;;;;;;;;13.70;77.00;;;;;;5044635;27;87596;-49
2024/03/29 03:22:48;;;;;;;;;;;13.70;76.50;;;;;;5043258;27;87061;-47
2024/03/29 03:25:13;;;;;;;;;;;13.70;76.40;;;;;;5045672;27;87111;-47
2024/03/29 03:27:39;;;;;;;;;;;13.70;76.40;;;;;;5042982;27;87592;-47
2024/03/29 03:30:05;;;;;;;;;;;13.70;76.50;;;;;;5040153;27;87500;-48
2024/03/29 03:32:30;;;;;;;;;;;13.60;76.50;;;;;;5044918;27;87866;-47
2024/03/29 03:34:56;;;;;;;;;;;13.60;76.50;;;;;;5044349;27;87596;-48
2024/03/29 03:37:21;;;;;;;;;;;13.60;76.30;;;;;;5044857;28;87334;-49
2024/03/29 03:39:47;;;;;;;;;;;13.60;76.30;;;;;;5044059;27;87291;-48
2024/03/29 03:42:13;;;;;;;;;;;13.60;76.40;;;;;;5041253;27;87381;-48
2024/03/29 03:44:38;;;;;;;;;;;13.60;76.40;;;;;;5045903;28;86935;-51
2024/03/29 03:47:04;;;;;;;;;;;13.50;76.30;;;;;;5043791;28;87105;-48
2024/03/29 03:49:29;;;;;;;;;;;13.50;76.40;;;;;;5043730;27;86370;-48
2024/03/29 03:51:55;;;;;;;;;;;13.50;76.30;;;;;;5043004;28;87780;-49
2024/03/29 03:54:21;;;;;;;;;;;13.50;76.50;;;;;;5044848;27;88694;-49
2024/03/29 03:56:46;;;;;;;;;;;13.50;76.30;;;;;;5042070;27;87921;-48
2024/03/29 03:59:14;;;;;;;;;;;13.50;76.20;;;;;;5045748;28;87831;-49
2024/03/29 04:01:39;;;;;;;;;;;13.50;76.20;;;;;;5041141;28;86952;-47
2024/03/29 04:04:05;;;;;;;;;;;13.40;76.30;;;;;;5043973;28;87006;-48
2024/03/29 04:06:30;;;;;;;;;;;13.50;76.30;;;;;;5044520;27;88538;-48
2024/03/29 04:08:56;;;;;;;;;;;13.40;76.40;;;;;;5041836;28;86998;-48
2024/03/29 04:11:21;;;;;;;;;;;13.40;76.30;;;;;;5044961;28;86916;-47
2024/03/29 04:13:47;;;;;;;;;;;13.40;76.20;;;;;;5043079;27;87146;-47
2024/03/29 04:16:12;;;;;;;;;;;13.40;76.20;;;;;;5043625;28;87132;-48
2024/03/29 04:18:38;;;;;;;;;;;13.40;76.30;;;;;;5042297;28;87247;-47
2024/03/29 04:21:04;;;;;;;;;;;13.40;76.80;;;;;;5041700;28;89165;-47
2024/03/29 04:23:30;;;;;;;;;;;13.30;76.10;;;;;;5044733;28;87973;-47
2024/03/29 04:25:56;;;;;;;;;;;13.30;76.20;;;;;;5044327;27;88628;-48
2024/03/29 04:28:22;;;;;;;;;;;13.30;76.20;;;;;;5044248;27;88878;-48
2024/03/29 04:30:51;;;;;;;;;;;13.30;76.20;;;;;;5042435;27;88832;-48
2024/03/29 04:33:17;;;;;;;;;;;13.30;76.30;;;;;;5044018;27;89188;-48
2024/03/29 04:35:51;;;;;;;;;;;13.30;76.20;;;;;;5042664;28;87029;-49
2024/03/29 04:38:16;;;;;;;;;;;13.30;76.20;;;;;;5043039;28;87402;-49
2024/03/29 04:40:42;;;;;;;;;;;13.30;76.20;;;;;;5043249;28;87545;-51
2024/03/29 04:43:07;;;;;;;;;;;13.30;76.20;;;;;;5046113;28;86976;-49
2024/03/29 04:45:33;;;;;;;;;;;13.30;76.20;;;;;;5042210;28;88740;-47
2024/03/29 04:47:59;;;;;;;;;;;13.20;76.20;;;;;;5043130;27;87034;-48
2024/03/29 04:50:24;;;;;;;;;;;13.20;76.20;;;;;;5044473;28;87612;-48
2024/03/29 04:52:50;;;;;;;;;;;13.20;76.20;;;;;;5041135;28;87454;-48
2024/03/29 04:55:15;;;;;;;;;;;13.20;76.10;;;;;;5043336;28;87858;-48
2024/03/29 04:57:41;;;;;;;;;;;13.20;76.10;;;;;;5040075;27;87078;-47
2024/03/29 05:00:07;;;;;;;;;;;13.20;76.00;;;;;;5041349;27;87678;-48
2024/03/29 05:02:32;;;;;;;;;;;13.20;76.20;;;;;;5042362;27;86314;-48
2024/03/29 05:04:58;;;;;;;;;;;13.10;75.90;;;;;;5046254;28;86983;-47
2024/03/29 05:07:23;;;;;;;;;;;13.10;75.90;;;;;;5042569;27;86993;-48
2024/03/29 05:09:49;;;;;;;;;;;13.10;75.90;;;;;;5042005;27;88008;-48
2024/03/29 05:12:14;;;;;;;;;;;13.10;76.00;;;;;;5042981;28;87771;-49
2024/03/29 05:14:40;;;;;;;;;;;13.10;76.10;;;;;;5038267;27;87143;-47
2024/03/29 05:17:06;;;;;;;;;;;13.10;76.10;;;;;;5041659;28;86956;-48
2024/03/29 05:19:32;;;;;;;;;;;13.00;76.00;;;;;;5042573;27;87751;-48
2024/03/29 05:21:57;;;;;;;;;;;13.00;76.60;;;;;;5043787;28;87006;-48
2024/03/29 05:24:23;;;;;;;;;;;13.00;76.00;;;;;;5043483;28;87626;-48
2024/03/29 05:26:48;;;;;;;;;;;13.00;76.00;;;;;;5045026;27;86667;-47
2024/03/29 05:29:14;;;;;;;;;;;13.00;76.10;;;;;;5041791;27;87348;-47
2024/03/29 05:31:41;;;;;;;;;;;13.00;76.20;;;;;;5037439;27;88823;-46
2024/03/29 05:34:06;;;;;;;;;;;13.00;76.10;;;;;;5036112;28;88513;-49
2024/03/29 05:36:32;;;;;;;;;;;13.00;76.00;;;;;;5042882;28;88001;-48
2024/03/29 05:38:58;;;;;;;;;;;13.00;76.10;;;;;;5042127;27;88552;-48
2024/03/29 05:41:24;;;;;;;;;;;13.00;76.00;;;;;;5044334;28;87022;-49
2024/03/29 05:43:50;;;;;;;;;;;13.00;76.10;;;;;;5036359;27;88257;-48
2024/03/29 05:46:17;;;;;;;;;;;12.90;76.00;;;;;;5041396;27;88402;-48
2024/03/29 05:48:42;;;;;;;;;;;12.90;76.10;;;;;;5042707;28;86955;-48
2024/03/29 05:51:08;;;;;;;;;;;12.90;76.10;;;;;;5043185;27;88155;-47
2024/03/29 05:53:34;;;;;;;;;;;12.90;76.20;;;;;;5042625;27;87124;-48
2024/03/29 05:55:59;;;;;;;;;;;12.90;76.10;;;;;;5046995;27;87937;-47
2024/03/29 05:58:25;;;;;;;;;;;12.90;76.10;;;;;;5044574;28;88595;-48
2024/03/29 06:00:50;;;;;;;;;;;12.90;76.10;;;;;;5041208;27;87038;-49
2024/03/29 06:03:16;;;;;;;;;;;12.90;76.20;;;;;;5044517;27;87090;-48
2024/03/29 06:05:41;;;;;;;;;;;12.90;76.10;;;;;;5045606;27;88391;-47
2024/03/29 06:08:07;;;;;;;;;;;12.90;76.30;;;;;;5047956;27;87076;-48
2024/03/29 06:10:33;;;;;;;;;;;12.90;76.30;;;;;;5045818;28;87493;-48
2024/03/29 06:13:06;;;;;;;;;;;12.90;76.30;;;;;;5043592;28;87404;-46
2024/03/29 06:18:18;;;;;;;;;;;12.90;76.20;;;;;;5042987;28;87127;-49
2024/03/29 06:20:44;;;;;;;;;;;12.90;76.30;;;;;;5043353;28;87377;-48
2024/03/29 06:23:10;;;;;;;;;;;12.90;76.40;;;;;;5043081;28;88729;-47
2024/03/29 06:25:35;;;;;;;;;;;12.90;76.30;;;;;;5046168;27;87857;-49
2024/03/29 06:28:01;;;;;;;;;;;12.90;76.40;;;;;;5046223;28;87148;-48
2024/03/29 06:30:27;;;;;;;;;;;12.90;76.50;;;;;;5047367;28;87284;-48
2024/03/29 06:32:52;;;;;;;;;;;12.90;76.40;;;;;;5044482;28;86902;-48
2024/03/29 06:35:20;;;;;;;;;;;12.90;76.40;;;;;;5046910;28;86922;-48
2024/03/29 06:37:45;;;;;;;;;;;12.80;76.50;;;;;;5045748;27;88504;-48
2024/03/29 06:40:11;;;;;;;;;;;12.80;76.40;;;;;;5041900;28;86838;-48
2024/03/29 06:42:37;;;;;;;;;;;12.90;76.50;;;;;;5044986;27;86858;-49
2024/03/29 06:45:05;;;;;;;;;;;12.90;76.50;;;;;;5044864;28;88267;-49
2024/03/29 06:47:31;;;;;;;;;;;12.90;76.50;;;;;;5045642;27;88736;-48
2024/03/29 06:49:57;;;;;;;;;;;12.90;76.50;;;;;;5044562;28;87986;-48
2024/03/29 06:52:22;;;;;;;;;;;12.90;76.50;;;;;;5043839;28;88336;-48
2024/03/29 06:54:48;;;;;;;;;;;12.90;76.50;;;;;;5042429;28;87210;-49
2024/03/29 06:57:17;;;;;;;;;;;12.90;76.60;;;;;;5042498;28;87386;-50
2024/03/29 06:59:42;;;;;;;;;;;12.90;76.60;;;;;;5042936;28;86934;-47
2024/03/29 07:02:09;;;;;;;;;;;12.90;76.60;;;;;;5043536;27;87083;-49
2024/03/29 07:04:35;;;;;;;;;;;12.90;76.60;;;;;;5044496;27;86919;-48
2024/03/29 07:07:01;;;;;;;;;;;12.90;76.60;;;;;;5045245;28;87065;-50
2024/03/29 07:09:26;;;;;;;;;;;12.90;76.60;;;;;;5044236;28;87486;-49
2024/03/29 07:11:52;;;;;;;;;;;12.90;76.60;;;;;;5045507;27;88710;-49
2024/03/29 07:14:18;;;;;;;;;;;12.90;76.70;;;;;;5044691;27;87476;-48
2024/03/29 07:16:44;;;;;;;;;;;12.90;76.60;;;;;;5045981;27;87459;-51
2024/03/29 07:19:12;;;;;;;;;;;12.90;76.70;;;;;;5044865;28;87588;-51
2024/03/29 07:21:40;;;;;;;;;;;12.90;76.70;;;;;;5041762;28;87921;-49
2024/03/29 07:24:06;;;;;;;;;;;12.90;76.80;;;;;;5040617;27;88657;-52
2024/03/29 07:26:32;;;;;;;;;;;12.90;76.80;;;;;;5041416;28;88277;-53
2024/03/29 07:28:57;;;;;;;;;;;12.90;76.80;;;;;;5046038;27;86989;-51
2024/03/29 07:31:23;;;;;;;;;;;12.90;76.90;;;;;;5045083;27;87664;-52
2024/03/29 07:33:49;;;;;;;;;;;12.90;76.90;;;;;;5046044;27;87263;-50
2024/03/29 07:36:16;;;;;;;;;;;12.90;76.90;;;;;;5045156;27;88496;-51
2024/03/29 07:38:42;;;;;;;;;;;12.90;76.80;;;;;;5041168;27;87117;-47
2024/03/29 07:41:09;;;;;;;;;;;12.90;76.80;;;;;;5043033;28;87034;-48
2024/03/29 07:43:41;;;;;;;;;;;12.90;76.80;;;;;;5044538;27;88414;-49
2024/03/29 07:46:08;;;;;;;;;;;12.90;76.80;;;;;;5044319;27;87017;-48
2024/03/29 07:48:35;;;;;;;;;;;12.90;76.80;;;;;;5044898;27;87406;-49
2024/03/29 07:51:00;;;;;;;;;;;12.90;76.80;;;;;;5043746;27;88584;-47
2024/03/29 07:53:26;;;;;;;;;;;12.90;76.80;;;;;;5045907;28;86421;-48
2024/03/29 07:55:51;;;;;;;;;;;12.90;76.80;;;;;;5038193;28;87032;-48
2024/03/29 07:58:17;;;;;;;;;;;12.90;77.40;;;;;;5045147;28;87887;-48
2024/03/29 08:00:43;;;;;;;;;;;12.90;76.80;;;;;;5039676;27;88674;-48
2024/03/29 08:03:08;;;;;;;;;;;12.90;76.90;;;;;;5041218;28;87410;-49
2024/03/29 08:05:34;;;;;;;;;;;12.90;76.90;;;;;;5045381;27;87094;-48
2024/03/29 08:08:00;;;;;;;;;;;12.90;76.80;;;;;;5042593;28;87022;-49
2024/03/29 08:10:26;;;;;;;;;;;12.90;76.80;;;;;;5044266;27;88500;-49
2024/03/29 08:12:51;;;;;;;;;;;12.90;76.90;;;;;;5043063;28;87389;-48
2024/03/29 08:15:20;;;;;;;;;;;12.90;76.90;;;;;;5043799;28;87005;-48
2024/03/29 08:17:46;;;;;;;;;;;12.90;77.00;;;;;;5043677;28;86891;-49
2024/03/29 08:20:11;;;;;;;;;;;12.90;77.00;;;;;;5043329;28;86969;-49
2024/03/29 08:22:37;;;;;;;;;;;12.90;77.00;;;;;;5044189;28;87578;-50
2024/03/29 08:25:02;;;;;;;;;;;12.90;77.00;;;;;;5038721;28;88641;-49
2024/03/29 08:27:28;;;;;;;;;;;12.90;77.00;;;;;;5059513;27;90439;-50
2024/03/29 08:29:54;;;;;;;;;;;12.90;77.00;;;;;;5040309;27;87408;-59
2024/03/29 08:32:19;;;;;;;;;;;12.90;77.00;;;;;;5038504;27;87177;-50
2024/03/29 08:34:45;;;;;;;;;;;12.90;77.00;;;;;;5044055;27;86981;-48
2024/03/29 08:37:10;;;;;;;;;;;13.00;77.00;;;;;;5044387;27;88498;-49
2024/03/29 08:39:37;;;;;;;;;;;13.00;77.00;;;;;;5046707;28;87004;-50
2024/03/29 08:42:05;;;;;;;;;;;13.00;77.00;;;;;;5043441;28;86950;-52
2024/03/29 08:44:31;;;;;;;;;;;13.00;76.90;;;;;;5042447;27;86980;-51
2024/03/29 08:46:58;;;;;;;;;;;13.00;77.00;;;;;;5043857;28;87040;-51
2024/03/29 08:49:24;;;;;;;;;;;13.00;77.00;;;;;;5042706;27;88499;-49
2024/03/29 08:51:49;;;;;;;;;;;13.00;77.10;;;;;;5042996;27;87026;-50
2024/03/29 08:54:15;;;;;;;;;;;13.00;77.00;;;;;;5038487;27;88322;-50
2024/03/29 08:56:41;;;;;;;;;;;13.00;77.00;;;;;;5044009;27;87611;-48
2024/03/29 08:59:09;;;;;;;;;;;13.00;77.00;;;;;;5044914;27;86989;-48
2024/03/29 09:01:41;;;;;;;;;;;13.00;77.00;;;;;;5046639;27;86913;-49
2024/03/29 09:04:10;;;;;;;;;;;13.00;77.10;;;;;;5043172;27;87101;-49
2024/03/29 09:06:35;;;;;;;;;;;13.00;77.10;;;;;;5040619;28;88078;-49
2024/03/29 09:09:02;;;;;;;;;;;13.10;77.20;;;;;;5036540;27;87522;-48
2024/03/29 09:11:28;;;;;;;;;;;13.10;77.20;;;;;;5042327;28;87016;-49
2024/03/29 09:13:56;;;;;;;;;;;13.10;77.20;;;;;;5044188;27;88566;-48
2024/03/29 09:16:21;;;;;;;;;;;13.10;77.10;;;;;;5041622;27;87423;-49
2024/03/29 09:18:47;;;;;;;;;;;13.10;77.20;;;;;;5043566;27;87005;-49
2024/03/29 09:21:13;;;;;;;;;;;13.10;77.20;;;;;;5043312;27;87001;-49
2024/03/29 09:23:41;;;;;;;;;;;13.10;77.10;;;;;;5047107;27;88224;-50
2024/03/29 09:26:07;;;;;;;;;;;13.10;77.10;;;;;;5043275;27;86936;-49
2024/03/29 09:28:34;;;;;;;;;;;13.10;77.10;;;;;;5046042;27;86962;-49
2024/03/29 09:31:00;;;;;;;;;;;13.20;77.20;;;;;;5047426;27;86271;-50
2024/03/29 09:33:25;;;;;;;;;;;13.20;77.20;;;;;;5041401;28;87043;-49
2024/03/29 09:35:51;;;;;;;;;;;13.20;77.30;;;;;;5047171;27;87690;-48
2024/03/29 09:38:17;;;;;;;;;;;13.20;77.30;;;;;;5046120;27;88227;-48
2024/03/29 09:40:43;;;;;;;;;;;13.20;77.30;;;;;;5047970;27;88877;-50
2024/03/29 09:43:10;;;;;;;;;;;13.20;77.30;;;;;;5046975;27;88999;-48
2024/03/29 09:45:37;;;;;;;;;;;13.20;77.40;;;;;;5049924;28;86865;-48
2024/03/29 09:48:06;;;;;;;;;;;13.20;77.40;;;;;;5046567;27;90576;-48
2024/03/29 09:50:33;;;;;;;;;;;13.30;77.40;;;;;;5039649;27;87037;-50
2024/03/29 09:52:59;;;;;;;;;;;13.30;77.40;;;;;;5047418;28;87884;-48
2024/03/29 09:55:24;;;;;;;;;;;13.30;77.40;;;;;;5047370;27;86685;-49
2024/03/29 09:57:50;;;;;;;;;;;13.30;77.50;;;;;;5043933;27;87323;-48
2024/03/29 10:00:17;;;;;;;;;;;13.30;77.50;;;;;;5047430;27;87112;-49
2024/03/29 10:02:43;;;;;;;;;;;13.30;77.40;;;;;;5043407;27;89487;-47
2024/03/29 10:05:11;;;;;;;;;;;13.40;77.50;;;;;;5047440;27;87032;-49
2024/03/29 10:07:37;;;;;;;;;;;13.30;77.40;;;;;;5046884;27;87995;-48
2024/03/29 10:10:03;;;;;;;;;;;13.40;77.60;;;;;;5047227;27;86949;-49
2024/03/29 10:12:29;;;;;;;;;;;13.40;77.50;;;;;;5045901;28;87710;-50
2024/03/29 10:15:05;;;;;;;;;;;13.40;77.60;;;;;;5045959;27;87337;-49
2024/03/29 10:17:30;;;;;;;;;;;13.40;77.50;;;;;;5044862;27;87452;-48
2024/03/29 10:19:59;;;;;;;;;;;13.40;77.60;;;;;;5043815;27;86899;-48
2024/03/29 10:22:25;;;;;;;;;;;13.50;77.60;;;;;;5044665;28;87409;-49
2024/03/29 10:24:51;;;;;;;;;;;13.40;77.40;;;;;;5046855;27;87079;-48
2024/03/29 10:27:17;;;;;;;;;;;13.50;77.50;;;;;;5047100;28;87976;-48
2024/03/29 10:29:42;;;;;;;;;;;13.50;77.50;;;;;;5047292;27;87019;-49
2024/03/29 10:32:08;;;;;;;;;;;13.50;77.60;;;;;;5046849;28;87236;-48
2024/03/29 10:34:36;;;;;;;;;;;13.60;77.60;;;;;;5043314;27;88575;-49
2024/03/29 10:37:02;;;;;;;;;;;13.60;77.50;;;;;;5044362;28;88750;-48
2024/03/29 10:39:28;;;;;;;;;;;13.60;77.60;;;;;;5041043;28;87918;-49
2024/03/29 10:41:55;;;;;;;;;;;13.60;77.60;;;;;;5043300;28;87881;-49
2024/03/29 10:44:20;;;;;;;;;;;13.60;77.60;;;;;;5046582;27;86180;-49
2024/03/29 10:46:48;;;;;;;;;;;13.70;77.60;;;;;;5045993;27;86850;-49
2024/03/29 10:49:16;;;;;;;;;;;13.70;77.60;;;;;;5046372;27;88402;-48
2024/03/29 10:51:42;;;;;;;;;;;13.70;77.70;;;;;;5045925;28;87882;-49
2024/03/29 10:54:09;;;;;;;;;;;13.70;77.60;;;;;;5045010;27;88412;-49
2024/03/29 10:56:36;;;;;;;;;;;13.70;77.60;;;;;;5046150;27;87010;-49
2024/03/29 10:59:20;;;;;;;;;;;13.80;77.50;;;;;;5040822;27;87948;-50
2024/03/29 11:01:50;;;;;;;;;;;13.80;77.60;;;;;;5045956;28;88507;-50
2024/03/29 11:04:22;;;;;;;;;;;13.80;77.50;;;;;;5040453;28;87848;-51
2024/03/29 11:06:51;;;;;;;;;;;13.80;77.40;;;;;;5044767;27;86958;-49
2024/03/29 11:09:18;;;;;;;;;;;13.80;77.40;;;;;;5043817;28;86924;-51
2024/03/29 11:11:46;;;;;;;;;;;13.80;77.40;;;;;;5048163;27;87659;-48
2024/03/29 11:14:16;;;;;;;;;;;13.90;77.40;;;;;;5042973;28;87559;-49
2024/03/29 11:16:45;;;;;;;;;;;13.90;77.40;;;;;;5044631;28;87985;-50
2024/03/29 11:19:12;;;;;;;;;;;13.90;77.40;;;;;;5041491;27;88919;-49
2024/03/29 11:21:39;;;;;;;;;;;13.90;77.30;;;;;;5044260;28;87887;-50
2024/03/29 11:24:05;;;;;;;;;;;13.90;77.30;;;;;;5044301;28;87442;-48
2024/03/29 11:26:30;;;;;;;;;;;14.00;77.30;;;;;;5043888;28;87923;-49
2024/03/29 11:28:58;;;;;;;;;;;14.00;77.30;;;;;;5036765;28;87496;-48
2024/03/29 11:31:24;;;;;;;;;;;14.00;77.30;;;;;;5040719;28;87165;-48
2024/03/29 11:33:52;;;;;;;;;;;14.10;77.40;;;;;;5046790;27;86945;-48
2024/03/29 11:36:24;;;;;;;;;;;14.10;77.40;;;;;;5044955;27;87481;-48
2024/03/29 11:38:54;;;;;;;;;;;14.10;77.50;;;;;;5045665;27;86969;-51
2024/03/29 11:41:21;;;;;;;;;;;14.10;77.50;;;;;;5043868;28;88671;-47
2024/03/29 11:43:49;;;;;;;;;;;14.20;77.50;;;;;;5042671;27;87166;-48
2024/03/29 11:46:17;;;;;;;;;;;14.20;77.40;;;;;;5042598;27;87910;-48
2024/03/29 11:48:52;;;;;;;;;;;14.20;77.30;;;;;;5042834;27;86958;-49
2024/03/29 11:51:24;;;;;;;;;;;14.30;77.30;;;;;;5039819;28;86897;-49
2024/03/29 11:53:52;;;;;;;;;;;14.30;77.40;;;;;;5041156;28;89228;-48
2024/03/29 11:56:18;;;;;;;;;;;14.30;77.40;;;;;;5038335;28;88708;-49
2024/03/29 11:58:44;;;;;;;;;;;14.30;77.40;;;;;;5044241;27;86949;-48
2024/03/29 12:01:10;;;;;;;;;;;14.30;77.40;;;;;;5044188;27;88500;-49
2024/03/29 12:03:38;;;;;;;;;;;14.40;77.40;;;;;;5042751;27;87005;-49
2024/03/29 12:06:04;;;;;;;;;;;14.40;77.30;;;;;;5043877;28;87756;-48
2024/03/29 12:08:30;;;;;;;;;;;14.40;77.20;;;;;;5043851;27;87737;-49
2024/03/29 12:10:57;;;;;;;;;;;14.40;77.20;;;;;;5040906;27;87432;-49
2024/03/29 12:13:23;;;;;;;;;;;14.50;77.20;;;;;;5040975;28;87539;-48
2024/03/29 12:15:48;;;;;;;;;;;14.50;77.20;;;;;;5042233;28;88845;-48
2024/03/29 12:18:16;;;;;;;;;;;14.50;77.30;;;;;;5046411;27;87698;-49
2024/03/29 12:20:42;;;;;;;;;;;14.50;77.20;;;;;;5038368;27;88486;-50
2024/03/29 12:23:09;;;;;;;;;;;14.60;77.20;;;;;;5045049;27;86176;-49
2024/03/29 12:25:36;;;;;;;;;;;14.60;77.20;;;;;;5044275;28;86941;-49
2024/03/29 12:28:02;;;;;;;;;;;14.60;77.10;;;;;;5040195;28;87839;-48
2024/03/29 12:30:27;;;;;;;;;;;14.60;77.00;;;;;;5043342;27;88481;-49
2024/03/29 12:33:02;;;;;;;;;;;14.70;77.00;;;;;;5043127;27;87924;-48
2024/03/29 12:35:29;;;;;;;;;;;14.70;76.90;;;;;;5040094;28;87152;-49
2024/03/29 12:37:56;;;;;;;;;;;14.70;76.90;;;;;;5044000;27;86978;-49
2024/03/29 12:40:23;;;;;;;;;;;14.70;76.80;;;;;;5042638;28;87713;-48
2024/03/29 12:42:50;;;;;;;;;;;14.80;76.80;;;;;;5044383;28;86968;-48
2024/03/29 12:45:16;;;;;;;;;;;14.80;76.90;;;;;;5038724;27;87830;-49
2024/03/29 12:47:42;;;;;;;;;;;14.80;76.80;;;;;;5043420;27;86163;-48
2024/03/29 12:50:08;;;;;;;;;;;14.90;77.40;;;;;;5044011;27;86892;-49
2024/03/29 12:52:37;;;;;;;;;;;14.90;76.80;;;;;;5043675;27;86940;-49
2024/03/29 12:55:05;;;;;;;;;;;14.90;76.70;;;;;;5042969;27;88742;-49
2024/03/29 12:57:31;;;;;;;;;;;14.90;76.70;;;;;;5044296;27;86964;-50
2024/03/29 12:59:56;;;;;;;;;;;15.00;76.70;;;;;;5045966;28;87027;-48
2024/03/29 13:02:23;;;;;;;;;;;15.00;76.70;;;;;;5046338;27;87296;-50
2024/03/29 13:04:48;;;;;;;;;;;15.00;76.70;;;;;;5048025;27;87981;-49
2024/03/29 13:07:15;;;;;;;;;;;15.10;76.70;;;;;;5047631;28;87694;-51
2024/03/29 13:09:40;;;;;;;;;;;15.10;76.70;;;;;;5047987;27;86947;-48
2024/03/29 13:12:06;;;;;;;;;;;15.10;76.60;;;;;;5047166;27;87055;-49
2024/03/29 13:14:32;;;;;;;;;;;15.20;76.50;;;;;;5044666;27;88354;-49
2024/03/29 13:16:58;;;;;;;;;;;15.20;76.60;;;;;;5044834;28;87549;-49
2024/03/29 13:19:23;;;;;;;;;;;15.20;76.50;;;;;;5046344;28;88435;-48
2024/03/29 13:21:49;;;;;;;;;;;15.30;76.40;;;;;;5045518;28;88036;-49
2024/03/29 13:24:14;;;;;;;;;;;15.30;76.40;;;;;;5047508;28;86997;-49
2024/03/29 13:26:40;;;;;;;;;;;15.30;76.30;;;;;;5046708;27;88818;-49
2024/03/29 13:29:06;;;;;;;;;;;15.40;76.30;;;;;;5047125;28;87000;-49
2024/03/29 13:31:32;;;;;;;;;;;15.40;76.40;;;;;;5043868;27;87825;-48
2024/03/29 13:34:11;;;;;;;;;;;15.40;76.40;;;;;;5039585;27;88667;-50
2024/03/29 13:36:38;;;;;;;;;;;15.50;76.40;;;;;;5042642;28;86257;-49
2024/03/29 13:39:04;;;;;;;;;;;15.50;76.40;;;;;;5042869;27;86931;-49
2024/03/29 13:41:30;;;;;;;;;;;15.50;76.20;;;;;;5041352;27;88625;-49
2024/03/29 13:43:55;;;;;;;;;;;15.60;76.30;;;;;;5048724;28;87954;-49
2024/03/29 13:46:21;;;;;;;;;;;15.60;76.20;;;;;;5046458;27;86968;-50
2024/03/29 13:48:47;;;;;;;;;;;15.60;76.20;;;;;;5044834;28;87159;-49
2024/03/29 13:51:12;;;;;;;;;;;15.70;76.10;;;;;;5043494;27;87819;-49
2024/03/29 13:53:40;;;;;;;;;;;15.70;76.20;;;;;;5046828;28;87946;-49
2024/03/29 13:56:06;;;;;;;;;;;15.70;76.10;;;;;;5046917;28;87070;-51
2024/03/29 13:58:31;;;;;;;;;;;15.80;76.00;;;;;;5045985;27;87889;-49
2024/03/29 14:00:59;;;;;;;;;;;15.80;76.60;;;;;;5044694;28;87813;-48
2024/03/29 14:03:25;;;;;;;;;;;15.80;75.90;;;;;;5044910;27;87208;-49
2024/03/29 14:05:51;;;;;;;;;;;15.90;75.90;;;;;;5049718;28;87925;-49
2024/03/29 14:08:16;;;;;;;;;;;15.90;75.70;;;;;;5046238;27;87965;-50
2024/03/29 14:10:42;;;;;;;;;;;16.00;76.00;;;;;;5045741;27;87587;-49
2024/03/29 14:13:09;;;;;;;;;;;16.00;75.80;;;;;;5044336;27;87575;-48
2024/03/29 14:15:34;;;;;;;;;;;16.00;75.90;;;;;;5043604;28;86994;-49
2024/03/29 14:18:00;;;;;;;;;;;16.10;75.80;;;;;;5044913;27;86995;-50